Summerland, Canada
Current Conditions -  °F | °C
As of 10:00 PM on Wednesday 26 Nov 2014 (Local Time) from CYYF Reporting Station
Light Rain Light Rain  
Wind Chill: -1°   Ceiling: 1800
Heat Index:   Visibility: 15mi
Dew Point:   Wind: 18mph
Humidity: 87%   Direction: 180°S
Pressure: 29.91"   Gusts: 26mph
Location:  49.6°N, 119.68°W
Report Text: CYYF 270600Z 18016G23KT 15SM -RA FEW010 BKN018 OVC032 04/02 A2991 RMK SF1SC5SC2 SLP140
Loading
Personal Weather Stations






























Interactive Weather Map New forecast layout! Learn more

10-Day Weather Forecast

Advertisements
Track Severe Weather on mobile